sensor_id;sensor_type;location;lat;lon;timestamp;P1;durP1;ratioP1;P2;durP2;ratioP2
23714;SDS011;12036;50.858;4.472;2023-06-05T00:02:01;11.63;;;2.75;;
23714;SDS011;12036;50.858;4.472;2023-06-05T00:04:27;5.88;;;2.40;;
23714;SDS011;12036;50.858;4.472;2023-06-05T00:06:53;8.27;;;2.47;;
23714;SDS011;12036;50.858;4.472;2023-06-05T00:09:19;4.95;;;2.47;;
23714;SDS011;12036;50.858;4.472;2023-06-05T00:11:45;6.18;;;2.67;;
23714;SDS011;12036;50.858;4.472;2023-06-05T00:14:11;3.90;;;2.65;;
23714;SDS011;12036;50.858;4.472;2023-06-05T00:16:37;5.97;;;2.50;;
23714;SDS011;12036;50.858;4.472;2023-06-05T00:19:03;5.15;;;2.47;;
23714;SDS011;12036;50.858;4.472;2023-06-05T00:21:29;5.85;;;2.85;;
23714;SDS011;12036;50.858;4.472;2023-06-05T00:23:55;5.03;;;2.90;;
23714;SDS011;12036;50.858;4.472;2023-06-05T00:26:21;6.85;;;2.58;;
23714;SDS011;12036;50.858;4.472;2023-06-05T00:28:46;5.22;;;2.60;;
23714;SDS011;12036;50.858;4.472;2023-06-05T00:31:12;6.88;;;2.83;;
23714;SDS011;12036;50.858;4.472;2023-06-05T00:33:39;5.72;;;2.75;;
23714;SDS011;12036;50.858;4.472;2023-06-05T00:36:04;3.83;;;2.53;;
23714;SDS011;12036;50.858;4.472;2023-06-05T00:38:30;5.97;;;2.33;;
23714;SDS011;12036;50.858;4.472;2023-06-05T00:40:56;6.00;;;3.05;;
23714;SDS011;12036;50.858;4.472;2023-06-05T00:43:22;8.63;;;2.72;;
23714;SDS011;12036;50.858;4.472;2023-06-05T00:45:47;5.28;;;2.88;;
23714;SDS011;12036;50.858;4.472;2023-06-05T00:48:15;7.25;;;2.80;;
23714;SDS011;12036;50.858;4.472;2023-06-05T00:50:41;6.72;;;2.70;;
23714;SDS011;12036;50.858;4.472;2023-06-05T00:53:07;4.95;;;2.80;;
23714;SDS011;12036;50.858;4.472;2023-06-05T00:55:33;7.60;;;2.78;;
23714;SDS011;12036;50.858;4.472;2023-06-05T00:58:02;8.23;;;3.03;;
23714;SDS011;12036;50.858;4.472;2023-06-05T01:00:29;9.65;;;3.00;;
23714;SDS011;12036;50.858;4.472;2023-06-05T01:02:54;5.38;;;2.75;;
23714;SDS011;12036;50.858;4.472;2023-06-05T01:05:21;8.05;;;2.70;;
23714;SDS011;12036;50.858;4.472;2023-06-05T01:07:47;6.03;;;2.75;;
23714;SDS011;12036;50.858;4.472;2023-06-05T01:10:13;4.75;;;2.83;;
23714;SDS011;12036;50.858;4.472;2023-06-05T01:12:49;7.85;;;2.70;;
23714;SDS011;12036;50.858;4.472;2023-06-05T01:15:18;4.70;;;2.90;;
23714;SDS011;12036;50.858;4.472;2023-06-05T01:17:53;4.13;;;3.00;;
23714;SDS011;12036;50.858;4.472;2023-06-05T01:20:24;7.10;;;3.28;;
23714;SDS011;12036;50.858;4.472;2023-06-05T01:23:01;4.32;;;3.00;;
23714;SDS011;12036;50.858;4.472;2023-06-05T01:25:28;7.97;;;3.45;;
23714;SDS011;12036;50.858;4.472;2023-06-05T01:27:54;5.25;;;2.88;;
23714;SDS011;12036;50.858;4.472;2023-06-05T01:30:36;9.10;;;2.90;;
23714;SDS011;12036;50.858;4.472;2023-06-05T01:33:13;9.07;;;2.60;;
23714;SDS011;12036;50.858;4.472;2023-06-05T01:35:42;9.30;;;3.17;;
23714;SDS011;12036;50.858;4.472;2023-06-05T01:38:10;6.35;;;3.17;;
23714;SDS011;12036;50.858;4.472;2023-06-05T01:40:36;5.10;;;3.00;;
23714;SDS011;12036;50.858;4.472;2023-06-05T01:43:03;5.55;;;3.47;;
23714;SDS011;12036;50.858;4.472;2023-06-05T01:45:30;4.63;;;3.00;;
23714;SDS011;12036;50.858;4.472;2023-06-05T01:47:57;8.27;;;3.67;;
23714;SDS011;12036;50.858;4.472;2023-06-05T01:50:23;11.20;;;3.55;;
23714;SDS011;12036;50.858;4.472;2023-06-05T01:52:49;6.93;;;3.28;;
23714;SDS011;12036;50.858;4.472;2023-06-05T01:55:20;8.18;;;3.10;;
23714;SDS011;12036;50.858;4.472;2023-06-05T02:00:15;9.43;;;3.83;;
23714;SDS011;12036;50.858;4.472;2023-06-05T02:02:44;6.85;;;3.17;;
23714;SDS011;12036;50.858;4.472;2023-06-05T02:05:13;6.13;;;3.28;;
23714;SDS011;12036;50.858;4.472;2023-06-05T02:07:40;4.97;;;3.40;;
23714;SDS011;12036;50.858;4.472;2023-06-05T02:10:07;7.80;;;3.47;;
23714;SDS011;12036;50.858;4.472;2023-06-05T02:12:34;9.88;;;4.15;;
23714;SDS011;12036;50.858;4.472;2023-06-05T02:15:02;6.30;;;3.47;;
23714;SDS011;12036;50.858;4.472;2023-06-05T02:17:29;6.15;;;3.47;;
23714;SDS011;12036;50.858;4.472;2023-06-05T02:19:55;5.18;;;3.38;;
23714;SDS011;12036;50.858;4.472;2023-06-05T02:22:21;4.82;;;3.50;;
23714;SDS011;12036;50.858;4.472;2023-06-05T02:24:48;4.50;;;3.45;;
23714;SDS011;12036;50.858;4.472;2023-06-05T02:27:16;7.18;;;3.95;;
23714;SDS011;12036;50.858;4.472;2023-06-05T02:29:42;8.35;;;3.85;;
23714;SDS011;12036;50.858;4.472;2023-06-05T02:32:08;5.50;;;3.33;;
23714;SDS011;12036;50.858;4.472;2023-06-05T02:34:35;6.78;;;3.40;;
23714;SDS011;12036;50.858;4.472;2023-06-05T02:37:00;5.50;;;3.85;;
23714;SDS011;12036;50.858;4.472;2023-06-05T02:39:27;6.88;;;3.92;;
23714;SDS011;12036;50.858;4.472;2023-06-05T02:41:54;6.22;;;3.30;;
23714;SDS011;12036;50.858;4.472;2023-06-05T02:44:21;8.93;;;3.70;;
23714;SDS011;12036;50.858;4.472;2023-06-05T02:46:47;5.55;;;3.17;;
23714;SDS011;12036;50.858;4.472;2023-06-05T02:49:13;6.95;;;3.88;;
23714;SDS011;12036;50.858;4.472;2023-06-05T02:51:38;5.72;;;3.65;;
23714;SDS011;12036;50.858;4.472;2023-06-05T02:54:04;8.88;;;3.40;;
23714;SDS011;12036;50.858;4.472;2023-06-05T02:56:30;6.47;;;3.90;;
23714;SDS011;12036;50.858;4.472;2023-06-05T02:58:55;9.05;;;3.92;;
23714;SDS011;12036;50.858;4.472;2023-06-05T03:01:22;4.80;;;3.70;;
23714;SDS011;12036;50.858;4.472;2023-06-05T03:03:48;7.07;;;3.78;;
23714;SDS011;12036;50.858;4.472;2023-06-05T03:06:14;7.28;;;3.83;;
23714;SDS011;12036;50.858;4.472;2023-06-05T03:08:42;9.57;;;3.92;;
23714;SDS011;12036;50.858;4.472;2023-06-05T03:11:08;6.20;;;3.67;;
23714;SDS011;12036;50.858;4.472;2023-06-05T03:13:33;12.93;;;4.63;;
23714;SDS011;12036;50.858;4.472;2023-06-05T03:15:59;6.47;;;3.95;;
23714;SDS011;12036;50.858;4.472;2023-06-05T03:18:28;8.38;;;3.90;;
23714;SDS011;12036;50.858;4.472;2023-06-05T03:20:55;8.38;;;3.75;;
23714;SDS011;12036;50.858;4.472;2023-06-05T03:23:25;7.38;;;4.28;;
23714;SDS011;12036;50.858;4.472;2023-06-05T03:25:52;6.13;;;3.50;;
23714;SDS011;12036;50.858;4.472;2023-06-05T03:28:20;8.40;;;4.28;;
23714;SDS011;12036;50.858;4.472;2023-06-05T03:30:46;4.72;;;3.85;;
23714;SDS011;12036;50.858;4.472;2023-06-05T03:33:12;7.47;;;4.10;;
23714;SDS011;12036;50.858;4.472;2023-06-05T03:35:39;6.70;;;3.92;;
23714;SDS011;12036;50.858;4.472;2023-06-05T03:38:05;8.32;;;4.20;;
23714;SDS011;12036;50.858;4.472;2023-06-05T03:40:31;7.85;;;4.03;;
23714;SDS011;12036;50.858;4.472;2023-06-05T03:42:57;7.88;;;4.30;;
23714;SDS011;12036;50.858;4.472;2023-06-05T03:45:22;6.30;;;4.00;;
23714;SDS011;12036;50.858;4.472;2023-06-05T03:47:50;6.47;;;4.03;;
23714;SDS011;12036;50.858;4.472;2023-06-05T03:50:15;6.05;;;4.00;;
23714;SDS011;12036;50.858;4.472;2023-06-05T03:52:41;9.10;;;3.83;;
23714;SDS011;12036;50.858;4.472;2023-06-05T03:55:07;9.07;;;4.50;;
23714;SDS011;12036;50.858;4.472;2023-06-05T03:57:34;8.48;;;4.30;;
23714;SDS011;12036;50.858;4.472;2023-06-05T04:00:02;8.05;;;4.00;;
23714;SDS011;12036;50.858;4.472;2023-06-05T04:02:30;5.90;;;4.22;;
23714;SDS011;12036;50.858;4.472;2023-06-05T04:04:56;9.30;;;4.47;;
23714;SDS011;12036;50.858;4.472;2023-06-05T04:07:21;9.65;;;4.30;;
23714;SDS011;12036;50.858;4.472;2023-06-05T04:09:47;10.65;;;4.20;;
23714;SDS011;12036;50.858;4.472;2023-06-05T04:12:12;11.07;;;4.63;;
23714;SDS011;12036;50.858;4.472;2023-06-05T04:14:39;12.48;;;4.93;;
23714;SDS011;12036;50.858;4.472;2023-06-05T04:17:05;5.10;;;3.92;;
23714;SDS011;12036;50.858;4.472;2023-06-05T04:19:31;7.50;;;4.80;;
23714;SDS011;12036;50.858;4.472;2023-06-05T04:21:56;10.30;;;4.70;;
23714;SDS011;12036;50.858;4.472;2023-06-05T04:24:22;10.00;;;5.20;;
23714;SDS011;12036;50.858;4.472;2023-06-05T04:26:50;9.20;;;4.63;;
23714;SDS011;12036;50.858;4.472;2023-06-05T04:29:17;6.97;;;4.30;;
23714;SDS011;12036;50.858;4.472;2023-06-05T04:31:45;9.77;;;4.90;;
23714;SDS011;12036;50.858;4.472;2023-06-05T04:34:12;8.80;;;4.85;;
23714;SDS011;12036;50.858;4.472;2023-06-05T04:36:40;10.60;;;5.63;;
23714;SDS011;12036;50.858;4.472;2023-06-05T04:39:06;9.77;;;5.38;;
23714;SDS011;12036;50.858;4.472;2023-06-05T04:41:38;10.32;;;5.55;;
23714;SDS011;12036;50.858;4.472;2023-06-05T04:44:09;9.02;;;5.38;;
23714;SDS011;12036;50.858;4.472;2023-06-05T04:46:37;7.80;;;5.35;;
23714;SDS011;12036;50.858;4.472;2023-06-05T04:49:04;7.65;;;4.57;;
23714;SDS011;12036;50.858;4.472;2023-06-05T04:51:33;8.70;;;4.68;;
23714;SDS011;12036;50.858;4.472;2023-06-05T04:53:58;7.60;;;4.13;;
23714;SDS011;12036;50.858;4.472;2023-06-05T04:56:24;7.55;;;4.57;;
23714;SDS011;12036;50.858;4.472;2023-06-05T04:58:50;6.57;;;4.50;;
23714;SDS011;12036;50.858;4.472;2023-06-05T05:01:19;7.53;;;4.50;;
23714;SDS011;12036;50.858;4.472;2023-06-05T05:03:44;6.40;;;4.07;;
23714;SDS011;12036;50.858;4.472;2023-06-05T05:06:13;7.80;;;4.18;;
23714;SDS011;12036;50.858;4.472;2023-06-05T05:08:39;9.13;;;4.72;;
23714;SDS011;12036;50.858;4.472;2023-06-05T05:11:05;6.25;;;4.45;;
23714;SDS011;12036;50.858;4.472;2023-06-05T05:13:31;6.95;;;4.38;;
23714;SDS011;12036;50.858;4.472;2023-06-05T05:15:56;7.97;;;4.70;;
23714;SDS011;12036;50.858;4.472;2023-06-05T05:18:22;8.27;;;4.53;;
23714;SDS011;12036;50.858;4.472;2023-06-05T05:20:47;6.97;;;4.32;;
23714;SDS011;12036;50.858;4.472;2023-06-05T05:23:14;5.75;;;4.47;;
23714;SDS011;12036;50.858;4.472;2023-06-05T05:25:40;8.50;;;4.45;;
23714;SDS011;12036;50.858;4.472;2023-06-05T05:28:05;6.93;;;4.35;;
23714;SDS011;12036;50.858;4.472;2023-06-05T05:30:31;6.97;;;4.32;;
23714;SDS011;12036;50.858;4.472;2023-06-05T05:32:58;8.45;;;4.30;;
23714;SDS011;12036;50.858;4.472;2023-06-05T05:35:24;9.43;;;4.53;;
23714;SDS011;12036;50.858;4.472;2023-06-05T05:37:49;7.03;;;5.22;;
23714;SDS011;12036;50.858;4.472;2023-06-05T05:40:15;9.65;;;4.75;;
23714;SDS011;12036;50.858;4.472;2023-06-05T05:42:41;7.45;;;4.18;;
23714;SDS011;12036;50.858;4.472;2023-06-05T05:45:07;6.53;;;4.45;;
23714;SDS011;12036;50.858;4.472;2023-06-05T05:47:33;4.93;;;4.15;;
23714;SDS011;12036;50.858;4.472;2023-06-05T05:49:59;6.90;;;4.15;;
23714;SDS011;12036;50.858;4.472;2023-06-05T05:52:24;6.43;;;4.25;;
23714;SDS011;12036;50.858;4.472;2023-06-05T05:54:50;5.70;;;4.93;;
23714;SDS011;12036;50.858;4.472;2023-06-05T05:57:17;11.13;;;5.85;;
23714;SDS011;12036;50.858;4.472;2023-06-05T05:59:42;6.60;;;4.72;;
23714;SDS011;12036;50.858;4.472;2023-06-05T06:02:10;8.60;;;4.65;;
23714;SDS011;12036;50.858;4.472;2023-06-05T06:04:36;11.00;;;4.68;;
23714;SDS011;12036;50.858;4.472;2023-06-05T06:07:03;9.60;;;4.45;;
23714;SDS011;12036;50.858;4.472;2023-06-05T06:09:29;8.05;;;5.15;;
23714;SDS011;12036;50.858;4.472;2023-06-05T06:11:55;9.85;;;5.10;;
23714;SDS011;12036;50.858;4.472;2023-06-05T06:14:22;9.25;;;5.00;;
23714;SDS011;12036;50.858;4.472;2023-06-05T06:16:48;9.70;;;4.32;;
23714;SDS011;12036;50.858;4.472;2023-06-05T06:19:15;8.25;;;4.70;;
23714;SDS011;12036;50.858;4.472;2023-06-05T06:21:41;12.30;;;4.97;;
23714;SDS011;12036;50.858;4.472;2023-06-05T06:24:07;9.15;;;4.85;;
23714;SDS011;12036;50.858;4.472;2023-06-05T06:26:34;9.95;;;4.72;;
23714;SDS011;12036;50.858;4.472;2023-06-05T06:29:02;8.70;;;4.80;;
23714;SDS011;12036;50.858;4.472;2023-06-05T06:31:27;10.60;;;5.28;;
23714;SDS011;12036;50.858;4.472;2023-06-05T06:33:53;7.28;;;4.90;;
23714;SDS011;12036;50.858;4.472;2023-06-05T06:36:19;6.95;;;4.55;;
23714;SDS011;12036;50.858;4.472;2023-06-05T06:38:45;8.77;;;4.85;;
23714;SDS011;12036;50.858;4.472;2023-06-05T06:41:10;7.70;;;4.75;;
23714;SDS011;12036;50.858;4.472;2023-06-05T06:43:36;8.57;;;5.10;;
23714;SDS011;12036;50.858;4.472;2023-06-05T06:46:02;7.90;;;4.93;;
23714;SDS011;12036;50.858;4.472;2023-06-05T06:48:29;9.35;;;4.55;;
23714;SDS011;12036;50.858;4.472;2023-06-05T06:50:55;7.68;;;4.32;;
23714;SDS011;12036;50.858;4.472;2023-06-05T06:53:21;6.18;;;4.97;;
23714;SDS011;12036;50.858;4.472;2023-06-05T06:55:46;8.73;;;4.70;;
23714;SDS011;12036;50.858;4.472;2023-06-05T06:58:12;7.15;;;4.75;;
23714;SDS011;12036;50.858;4.472;2023-06-05T07:00:37;6.15;;;4.50;;
23714;SDS011;12036;50.858;4.472;2023-06-05T07:03:03;5.85;;;4.55;;
23714;SDS011;12036;50.858;4.472;2023-06-05T07:05:30;5.95;;;4.70;;
23714;SDS011;12036;50.858;4.472;2023-06-05T07:07:56;6.57;;;4.50;;
23714;SDS011;12036;50.858;4.472;2023-06-05T07:10:26;8.70;;;5.60;;
23714;SDS011;12036;50.858;4.472;2023-06-05T07:12:54;6.90;;;4.90;;
23714;SDS011;12036;50.858;4.472;2023-06-05T07:15:20;8.02;;;5.43;;
23714;SDS011;12036;50.858;4.472;2023-06-05T07:17:46;10.07;;;5.60;;
23714;SDS011;12036;50.858;4.472;2023-06-05T07:20:12;8.55;;;5.18;;
23714;SDS011;12036;50.858;4.472;2023-06-05T07:22:41;7.90;;;5.28;;
23714;SDS011;12036;50.858;4.472;2023-06-05T07:25:07;8.85;;;5.43;;
23714;SDS011;12036;50.858;4.472;2023-06-05T07:27:34;10.73;;;5.72;;
23714;SDS011;12036;50.858;4.472;2023-06-05T07:30:00;8.18;;;5.63;;
23714;SDS011;12036;50.858;4.472;2023-06-05T07:32:26;9.63;;;6.03;;
23714;SDS011;12036;50.858;4.472;2023-06-05T07:34:52;8.32;;;5.88;;
23714;SDS011;12036;50.858;4.472;2023-06-05T07:37:18;10.07;;;6.07;;
23714;SDS011;12036;50.858;4.472;2023-06-05T07:39:43;10.20;;;5.57;;
23714;SDS011;12036;50.858;4.472;2023-06-05T07:42:09;10.88;;;6.10;;
23714;SDS011;12036;50.858;4.472;2023-06-05T07:44:35;7.80;;;5.72;;
23714;SDS011;12036;50.858;4.472;2023-06-05T07:47:01;7.90;;;5.75;;
23714;SDS011;12036;50.858;4.472;2023-06-05T07:49:29;9.10;;;6.05;;
23714;SDS011;12036;50.858;4.472;2023-06-05T07:51:59;7.93;;;6.18;;
23714;SDS011;12036;50.858;4.472;2023-06-05T07:54:25;8.00;;;5.72;;
23714;SDS011;12036;50.858;4.472;2023-06-05T07:56:51;9.20;;;6.22;;
23714;SDS011;12036;50.858;4.472;2023-06-05T07:59:16;9.63;;;6.15;;
23714;SDS011;12036;50.858;4.472;2023-06-05T08:01:47;10.63;;;6.13;;
23714;SDS011;12036;50.858;4.472;2023-06-05T08:04:14;8.63;;;6.72;;
23714;SDS011;12036;50.858;4.472;2023-06-05T08:06:41;8.98;;;5.93;;
23714;SDS011;12036;50.858;4.472;2023-06-05T08:09:07;12.35;;;6.72;;
23714;SDS011;12036;50.858;4.472;2023-06-05T08:11:35;12.57;;;6.00;;
23714;SDS011;12036;50.858;4.472;2023-06-05T08:14:02;8.45;;;6.22;;
23714;SDS011;12036;50.858;4.472;2023-06-05T08:16:29;11.88;;;6.25;;
23714;SDS011;12036;50.858;4.472;2023-06-05T08:18:55;12.27;;;6.22;;
23714;SDS011;12036;50.858;4.472;2023-06-05T08:21:22;13.07;;;6.88;;
23714;SDS011;12036;50.858;4.472;2023-06-05T08:23:47;10.80;;;6.90;;
23714;SDS011;12036;50.858;4.472;2023-06-05T08:26:13;9.65;;;6.53;;
23714;SDS011;12036;50.858;4.472;2023-06-05T08:28:39;10.38;;;6.28;;
23714;SDS011;12036;50.858;4.472;2023-06-05T08:31:06;11.95;;;6.70;;
23714;SDS011;12036;50.858;4.472;2023-06-05T08:33:33;9.60;;;6.00;;
23714;SDS011;12036;50.858;4.472;2023-06-05T08:35:59;10.02;;;6.78;;
23714;SDS011;12036;50.858;4.472;2023-06-05T08:38:24;11.82;;;7.25;;
23714;SDS011;12036;50.858;4.472;2023-06-05T08:41:00;9.75;;;7.45;;
23714;SDS011;12036;50.858;4.472;2023-06-05T08:43:35;11.65;;;7.22;;
23714;SDS011;12036;50.858;4.472;2023-06-05T08:46:05;12.60;;;6.88;;
23714;SDS011;12036;50.858;4.472;2023-06-05T08:48:52;14.40;;;7.55;;
23714;SDS011;12036;50.858;4.472;2023-06-05T08:51:18;10.70;;;6.80;;
23714;SDS011;12036;50.858;4.472;2023-06-05T08:53:50;12.05;;;6.47;;
23714;SDS011;12036;50.858;4.472;2023-06-05T08:56:19;10.18;;;6.00;;
23714;SDS011;12036;50.858;4.472;2023-06-05T08:58:46;10.25;;;6.82;;
23714;SDS011;12036;50.858;4.472;2023-06-05T09:01:13;9.68;;;6.22;;
23714;SDS011;12036;50.858;4.472;2023-06-05T09:03:38;9.55;;;6.53;;
23714;SDS011;12036;50.858;4.472;2023-06-05T09:06:04;8.23;;;6.47;;
23714;SDS011;12036;50.858;4.472;2023-06-05T09:08:33;8.18;;;6.05;;
23714;SDS011;12036;50.858;4.472;2023-06-05T09:13:51;10.35;;;7.20;;
23714;SDS011;12036;50.858;4.472;2023-06-05T09:16:19;11.23;;;7.57;;
23714;SDS011;12036;50.858;4.472;2023-06-05T09:18:53;11.63;;;7.75;;
23714;SDS011;12036;50.858;4.472;2023-06-05T09:21:20;10.50;;;6.85;;
23714;SDS011;12036;50.858;4.472;2023-06-05T09:23:59;14.85;;;7.30;;
23714;SDS011;12036;50.858;4.472;2023-06-05T09:29:11;11.88;;;7.00;;
23714;SDS011;12036;50.858;4.472;2023-06-05T09:31:42;9.68;;;6.82;;
23714;SDS011;12036;50.858;4.472;2023-06-05T09:34:08;7.80;;;6.60;;
23714;SDS011;12036;50.858;4.472;2023-06-05T09:36:36;8.63;;;6.30;;
23714;SDS011;12036;50.858;4.472;2023-06-05T09:39:13;9.68;;;7.07;;
23714;SDS011;12036;50.858;4.472;2023-06-05T09:41:44;10.38;;;6.57;;
23714;SDS011;12036;50.858;4.472;2023-06-05T09:44:10;10.07;;;7.00;;
23714;SDS011;12036;50.858;4.472;2023-06-05T09:49:32;12.25;;;6.40;;
23714;SDS011;12036;50.858;4.472;2023-06-05T09:52:11;8.43;;;6.50;;
23714;SDS011;12036;50.858;4.472;2023-06-05T09:54:38;11.88;;;6.55;;
23714;SDS011;12036;50.858;4.472;2023-06-05T09:57:11;9.68;;;6.57;;
23714;SDS011;12036;50.858;4.472;2023-06-05T10:00:01;6.75;;;5.82;;
23714;SDS011;12036;50.858;4.472;2023-06-05T10:02:32;9.30;;;6.25;;
23714;SDS011;12036;50.858;4.472;2023-06-05T10:05:03;9.05;;;6.40;;
23714;SDS011;12036;50.858;4.472;2023-06-05T10:07:33;10.88;;;6.45;;
23714;SDS011;12036;50.858;4.472;2023-06-05T10:10:01;9.15;;;6.07;;
23714;SDS011;12036;50.858;4.472;2023-06-05T10:12:27;7.18;;;5.18;;
23714;SDS011;12036;50.858;4.472;2023-06-05T10:14:55;7.57;;;5.07;;
23714;SDS011;12036;50.858;4.472;2023-06-05T10:17:22;11.20;;;5.07;;
23714;SDS011;12036;50.858;4.472;2023-06-05T10:19:48;8.52;;;5.50;;
23714;SDS011;12036;50.858;4.472;2023-06-05T10:22:16;9.20;;;5.03;;
23714;SDS011;12036;50.858;4.472;2023-06-05T10:24:44;6.68;;;5.03;;
23714;SDS011;12036;50.858;4.472;2023-06-05T10:27:24;8.63;;;5.60;;
23714;SDS011;12036;50.858;4.472;2023-06-05T10:33:11;5.70;;;5.10;;
23714;SDS011;12036;50.858;4.472;2023-06-05T10:38:26;10.30;;;4.93;;
23714;SDS011;12036;50.858;4.472;2023-06-05T10:40:55;6.88;;;4.70;;
23714;SDS011;12036;50.858;4.472;2023-06-05T10:46:27;8.57;;;4.40;;
23714;SDS011;12036;50.858;4.472;2023-06-05T10:54:11;5.10;;;4.35;;
23714;SDS011;12036;50.858;4.472;2023-06-05T10:57:03;6.95;;;5.07;;
23714;SDS011;12036;50.858;4.472;2023-06-05T10:59:36;9.07;;;4.70;;
23714;SDS011;12036;50.858;4.472;2023-06-05T11:07:16;7.78;;;4.70;;
23714;SDS011;12036;50.858;4.472;2023-06-05T11:15:07;9.27;;;3.45;;
23714;SDS011;12036;50.858;4.472;2023-06-05T11:30:18;8.65;;;3.60;;
23714;SDS011;12036;50.858;4.472;2023-06-05T11:32:45;9.05;;;4.57;;
23714;SDS011;12036;50.858;4.472;2023-06-05T11:35:12;3.83;;;3.42;;
23714;SDS011;12036;50.858;4.472;2023-06-05T11:37:38;5.28;;;3.42;;
23714;SDS011;12036;50.858;4.472;2023-06-05T11:40:07;10.23;;;4.05;;
23714;SDS011;12036;50.858;4.472;2023-06-05T11:42:37;8.15;;;3.55;;
23714;SDS011;12036;50.858;4.472;2023-06-05T11:45:13;5.88;;;3.15;;
23714;SDS011;12036;50.858;4.472;2023-06-05T11:47:39;6.13;;;3.38;;
23714;SDS011;12036;50.858;4.472;2023-06-05T11:50:12;4.47;;;3.40;;
23714;SDS011;12036;50.858;4.472;2023-06-05T11:52:40;7.07;;;3.40;;
23714;SDS011;12036;50.858;4.472;2023-06-05T11:57:45;4.55;;;2.72;;
23714;SDS011;12036;50.858;4.472;2023-06-05T12:00:12;6.90;;;3.00;;
23714;SDS011;12036;50.858;4.472;2023-06-05T12:02:38;8.40;;;3.70;;
23714;SDS011;12036;50.858;4.472;2023-06-05T12:05:07;6.97;;;2.95;;
23714;SDS011;12036;50.858;4.472;2023-06-05T12:07:34;4.47;;;2.75;;
23714;SDS011;12036;50.858;4.472;2023-06-05T12:10:05;4.05;;;2.92;;
23714;SDS011;12036;50.858;4.472;2023-06-05T12:12:33;7.32;;;3.22;;
23714;SDS011;12036;50.858;4.472;2023-06-05T12:15:14;9.25;;;3.20;;
23714;SDS011;12036;50.858;4.472;2023-06-05T12:17:41;9.32;;;3.55;;
23714;SDS011;12036;50.858;4.472;2023-06-05T12:20:17;8.75;;;3.38;;
23714;SDS011;12036;50.858;4.472;2023-06-05T12:22:44;6.20;;;3.63;;
23714;SDS011;12036;50.858;4.472;2023-06-05T12:25:17;5.35;;;3.55;;
23714;SDS011;12036;50.858;4.472;2023-06-05T12:27:43;5.25;;;3.33;;
23714;SDS011;12036;50.858;4.472;2023-06-05T12:30:10;4.63;;;3.15;;
23714;SDS011;12036;50.858;4.472;2023-06-05T12:32:37;6.63;;;2.78;;
23714;SDS011;12036;50.858;4.472;2023-06-05T12:35:17;3.25;;;2.55;;
23714;SDS011;12036;50.858;4.472;2023-06-05T12:37:58;4.72;;;2.90;;
23714;SDS011;12036;50.858;4.472;2023-06-05T12:40:25;4.82;;;3.03;;
23714;SDS011;12036;50.858;4.472;2023-06-05T12:42:50;7.35;;;3.35;;
23714;SDS011;12036;50.858;4.472;2023-06-05T12:45:16;4.88;;;2.85;;
23714;SDS011;12036;50.858;4.472;2023-06-05T12:47:42;3.88;;;2.63;;
23714;SDS011;12036;50.858;4.472;2023-06-05T12:50:09;4.07;;;2.40;;
23714;SDS011;12036;50.858;4.472;2023-06-05T12:52:39;7.10;;;3.00;;
23714;SDS011;12036;50.858;4.472;2023-06-05T12:55:06;6.40;;;3.10;;
23714;SDS011;12036;50.858;4.472;2023-06-05T12:57:33;5.75;;;2.45;;
23714;SDS011;12036;50.858;4.472;2023-06-05T12:59:59;7.38;;;2.40;;
23714;SDS011;12036;50.858;4.472;2023-06-05T13:02:40;4.35;;;2.13;;
23714;SDS011;12036;50.858;4.472;2023-06-05T13:05:09;10.85;;;2.97;;
23714;SDS011;12036;50.858;4.472;2023-06-05T13:07:36;5.38;;;2.80;;
23714;SDS011;12036;50.858;4.472;2023-06-05T13:10:04;4.95;;;2.63;;
23714;SDS011;12036;50.858;4.472;2023-06-05T13:12:31;3.60;;;2.60;;
23714;SDS011;12036;50.858;4.472;2023-06-05T13:14:56;5.22;;;2.78;;
23714;SDS011;12036;50.858;4.472;2023-06-05T13:17:22;10.25;;;3.03;;
23714;SDS011;12036;50.858;4.472;2023-06-05T13:19:49;8.38;;;2.85;;
23714;SDS011;12036;50.858;4.472;2023-06-05T13:22:14;4.45;;;2.38;;
23714;SDS011;12036;50.858;4.472;2023-06-05T13:24:40;3.83;;;2.30;;
23714;SDS011;12036;50.858;4.472;2023-06-05T13:27:06;7.78;;;2.88;;
23714;SDS011;12036;50.858;4.472;2023-06-05T13:29:32;6.90;;;2.70;;
23714;SDS011;12036;50.858;4.472;2023-06-05T13:31:57;5.97;;;2.83;;
23714;SDS011;12036;50.858;4.472;2023-06-05T13:34:23;8.27;;;2.75;;
23714;SDS011;12036;50.858;4.472;2023-06-05T13:36:48;3.03;;;2.17;;
23714;SDS011;12036;50.858;4.472;2023-06-05T13:39:14;5.97;;;2.55;;
23714;SDS011;12036;50.858;4.472;2023-06-05T13:41:41;4.20;;;2.25;;
23714;SDS011;12036;50.858;4.472;2023-06-05T13:44:06;3.53;;;2.17;;
23714;SDS011;12036;50.858;4.472;2023-06-05T13:46:32;8.45;;;2.00;;
23714;SDS011;12036;50.858;4.472;2023-06-05T13:48:58;3.97;;;2.20;;
23714;SDS011;12036;50.858;4.472;2023-06-05T13:51:25;4.65;;;2.13;;
23714;SDS011;12036;50.858;4.472;2023-06-05T13:53:51;5.78;;;2.20;;
23714;SDS011;12036;50.858;4.472;2023-06-05T13:56:18;5.00;;;2.20;;
23714;SDS011;12036;50.858;4.472;2023-06-05T13:58:45;5.38;;;2.60;;
23714;SDS011;12036;50.858;4.472;2023-06-05T14:01:10;5.38;;;2.35;;
23714;SDS011;12036;50.858;4.472;2023-06-05T14:03:36;3.50;;;2.20;;
23714;SDS011;12036;50.858;4.472;2023-06-05T14:06:02;4.15;;;2.42;;
23714;SDS011;12036;50.858;4.472;2023-06-05T14:08:27;7.07;;;2.53;;
23714;SDS011;12036;50.858;4.472;2023-06-05T14:10:53;3.70;;;2.05;;
23714;SDS011;12036;50.858;4.472;2023-06-05T14:13:19;5.00;;;2.30;;
23714;SDS011;12036;50.858;4.472;2023-06-05T14:15:45;6.03;;;2.65;;
23714;SDS011;12036;50.858;4.472;2023-06-05T14:18:10;4.95;;;2.78;;
23714;SDS011;12036;50.858;4.472;2023-06-05T14:20:37;5.35;;;2.63;;
23714;SDS011;12036;50.858;4.472;2023-06-05T14:23:03;4.07;;;2.60;;
23714;SDS011;12036;50.858;4.472;2023-06-05T14:25:29;5.07;;;2.42;;
23714;SDS011;12036;50.858;4.472;2023-06-05T14:27:58;5.53;;;2.47;;
23714;SDS011;12036;50.858;4.472;2023-06-05T14:30:24;8.65;;;2.80;;
23714;SDS011;12036;50.858;4.472;2023-06-05T14:32:53;3.13;;;2.38;;
23714;SDS011;12036;50.858;4.472;2023-06-05T14:35:20;4.55;;;2.53;;
23714;SDS011;12036;50.858;4.472;2023-06-05T14:37:47;5.32;;;2.30;;
23714;SDS011;12036;50.858;4.472;2023-06-05T14:40:13;5.28;;;2.33;;
23714;SDS011;12036;50.858;4.472;2023-06-05T14:42:38;5.13;;;2.08;;
23714;SDS011;12036;50.858;4.472;2023-06-05T14:45:04;5.45;;;2.20;;
23714;SDS011;12036;50.858;4.472;2023-06-05T14:47:31;4.03;;;2.20;;
23714;SDS011;12036;50.858;4.472;2023-06-05T14:49:56;4.55;;;2.58;;
23714;SDS011;12036;50.858;4.472;2023-06-05T14:52:23;4.45;;;2.10;;
23714;SDS011;12036;50.858;4.472;2023-06-05T14:54:49;8.27;;;2.47;;
23714;SDS011;12036;50.858;4.472;2023-06-05T14:57:14;3.22;;;2.17;;
23714;SDS011;12036;50.858;4.472;2023-06-05T14:59:40;7.80;;;2.45;;
23714;SDS011;12036;50.858;4.472;2023-06-05T15:02:06;7.20;;;2.35;;
23714;SDS011;12036;50.858;4.472;2023-06-05T15:04:32;4.47;;;2.45;;
23714;SDS011;12036;50.858;4.472;2023-06-05T15:06:58;7.15;;;2.50;;
23714;SDS011;12036;50.858;4.472;2023-06-05T15:09:24;5.10;;;2.45;;
23714;SDS011;12036;50.858;4.472;2023-06-05T15:11:50;5.28;;;2.30;;
23714;SDS011;12036;50.858;4.472;2023-06-05T15:14:16;5.18;;;2.40;;
23714;SDS011;12036;50.858;4.472;2023-06-05T15:16:42;5.25;;;2.70;;
23714;SDS011;12036;50.858;4.472;2023-06-05T15:19:08;3.95;;;2.47;;
23714;SDS011;12036;50.858;4.472;2023-06-05T15:21:34;6.80;;;2.40;;
23714;SDS011;12036;50.858;4.472;2023-06-05T15:24:01;2.78;;;2.28;;
23714;SDS011;12036;50.858;4.472;2023-06-05T15:26:27;5.50;;;2.70;;
23714;SDS011;12036;50.858;4.472;2023-06-05T15:28:52;6.82;;;3.05;;
23714;SDS011;12036;50.858;4.472;2023-06-05T15:31:18;3.20;;;2.17;;
23714;SDS011;12036;50.858;4.472;2023-06-05T15:33:43;5.38;;;2.78;;
23714;SDS011;12036;50.858;4.472;2023-06-05T15:36:09;3.63;;;2.28;;
23714;SDS011;12036;50.858;4.472;2023-06-05T15:38:35;4.10;;;2.40;;